sensor_id;sensor_type;location;lat;lon;timestamp;pressure;altitude;pressure_sealevel;temperature;humidity
51460;BME280;37534;39.772;2.718;2023-02-21T00:00:26;102056.72;;;7.28;100.00
51460;BME280;37534;39.772;2.718;2023-02-21T00:03:09;102052.47;;;7.30;100.00
51460;BME280;37534;39.772;2.718;2023-02-21T00:05:53;102059.31;;;7.30;100.00
51460;BME280;37534;39.772;2.718;2023-02-21T00:08:37;102048.97;;;7.22;100.00
51460;BME280;37534;39.772;2.718;2023-02-21T00:11:21;102049.88;;;7.27;100.00
51460;BME280;37534;39.772;2.718;2023-02-21T00:14:05;102038.72;;;7.23;100.00
51460;BME280;37534;39.772;2.718;2023-02-21T00:16:49;102046.28;;;7.10;100.00
51460;BME280;37534;39.772;2.718;2023-02-21T00:19:33;102043.69;;;7.03;100.00
51460;BME280;37534;39.772;2.718;2023-02-21T00:22:17;102047.06;;;7.02;100.00
51460;BME280;37534;39.772;2.718;2023-02-21T00:25:01;102054.69;;;6.96;100.00
51460;BME280;37534;39.772;2.718;2023-02-21T00:27:45;102049.56;;;6.96;100.00
51460;BME280;37534;39.772;2.718;2023-02-21T00:30:29;102044.44;;;6.96;100.00
51460;BME280;37534;39.772;2.718;2023-02-21T00:33:13;102049.69;;;7.10;100.00
51460;BME280;37534;39.772;2.718;2023-02-21T00:35:57;102043.75;;;7.16;100.00
51460;BME280;37534;39.772;2.718;2023-02-21T00:38:41;102049.63;;;7.01;100.00
51460;BME280;37534;39.772;2.718;2023-02-21T00:41:25;102031.53;;;6.89;100.00
51460;BME280;37534;39.772;2.718;2023-02-21T00:44:09;102037.50;;;6.89;100.00
51460;BME280;37534;39.772;2.718;2023-02-21T00:46:53;102038.34;;;6.85;100.00
51460;BME280;37534;39.772;2.718;2023-02-21T00:49:37;102046.09;;;6.91;100.00
51460;BME280;37534;39.772;2.718;2023-02-21T00:52:21;102035.84;;;6.94;100.00
51460;BME280;37534;39.772;2.718;2023-02-21T00:55:05;102040.03;;;6.83;100.00
51460;BME280;37534;39.772;2.718;2023-02-21T00:57:49;102030.50;;;6.73;100.00
51460;BME280;37534;39.772;2.718;2023-02-21T01:00:33;102031.41;;;6.78;100.00
51460;BME280;37534;39.772;2.718;2023-02-21T01:03:17;102027.31;;;6.95;100.00
51460;BME280;37534;39.772;2.718;2023-02-21T01:06:01;102020.31;;;6.79;100.00
51460;BME280;37534;39.772;2.718;2023-02-21T01:08:45;102016.09;;;6.82;100.00
51460;BME280;37534;39.772;2.718;2023-02-21T01:11:31;102012.53;;;6.71;100.00
51460;BME280;37534;39.772;2.718;2023-02-21T01:14:16;102016.59;;;6.54;100.00
51460;BME280;37534;39.772;2.718;2023-02-21T01:17:00;102005.53;;;6.56;100.00
51460;BME280;37534;39.772;2.718;2023-02-21T01:19:44;102006.34;;;6.52;100.00
51460;BME280;37534;39.772;2.718;2023-02-21T01:22:28;101995.13;;;6.42;100.00
51460;BME280;37534;39.772;2.718;2023-02-21T01:25:13;102001.09;;;6.43;100.00
51460;BME280;37534;39.772;2.718;2023-02-21T01:27:57;102004.56;;;6.45;100.00
51460;BME280;37534;39.772;2.718;2023-02-21T01:30:41;102004.72;;;6.60;100.00
51460;BME280;37534;39.772;2.718;2023-02-21T01:33:25;101993.53;;;6.55;100.00
51460;BME280;37534;39.772;2.718;2023-02-21T01:36:09;101998.59;;;6.47;100.00
51460;BME280;37534;39.772;2.718;2023-02-21T01:38:54;102003.69;;;6.44;100.00
51460;BME280;37534;39.772;2.718;2023-02-21T01:41:38;102000.28;;;6.45;100.00
51460;BME280;37534;39.772;2.718;2023-02-21T01:44:41;102002.88;;;6.47;100.00
51460;BME280;37534;39.772;2.718;2023-02-21T01:47:26;101986.63;;;6.45;100.00
51460;BME280;37534;39.772;2.718;2023-02-21T01:50:24;101982.34;;;6.47;100.00
51460;BME280;37534;39.772;2.718;2023-02-21T01:53:13;101971.41;;;6.62;100.00
51460;BME280;37534;39.772;2.718;2023-02-21T01:55:59;101973.03;;;6.55;100.00
51460;BME280;37534;39.772;2.718;2023-02-21T01:58:44;101967.94;;;6.58;100.00
51460;BME280;37534;39.772;2.718;2023-02-21T02:01:43;101972.94;;;6.46;100.00
51460;BME280;37534;39.772;2.718;2023-02-21T02:04:30;101969.56;;;6.49;100.00
51460;BME280;37534;39.772;2.718;2023-02-21T02:07:15;101975.50;;;6.46;100.00
51460;BME280;37534;39.772;2.718;2023-02-21T02:09:59;101970.22;;;6.34;100.00
51460;BME280;37534;39.772;2.718;2023-02-21T02:13:12;101974.72;;;6.53;100.00
51460;BME280;37534;39.772;2.718;2023-02-21T02:16:20;101975.41;;;6.37;100.00
51460;BME280;37534;39.772;2.718;2023-02-21T02:18:56;101980.59;;;6.43;100.00
51460;BME280;37534;39.772;2.718;2023-02-21T02:30:02;101970.47;;;6.57;100.00
51460;BME280;37534;39.772;2.718;2023-02-21T02:33:12;101963.59;;;6.51;100.00
51460;BME280;37534;39.772;2.718;2023-02-21T02:36:26;101962.63;;;6.43;100.00
51460;BME280;37534;39.772;2.718;2023-02-21T02:42:31;101960.91;;;6.40;100.00
51460;BME280;37534;39.772;2.718;2023-02-21T02:47:37;101961.91;;;6.53;100.00
51460;BME280;37534;39.772;2.718;2023-02-21T02:50:05;101966.16;;;6.51;100.00
51460;BME280;37534;39.772;2.718;2023-02-21T02:52:34;101962.78;;;6.55;100.00
51460;BME280;37534;39.772;2.718;2023-02-21T02:57:53;101987.75;;;6.72;100.00
51460;BME280;37534;39.772;2.718;2023-02-21T03:00:19;101982.59;;;6.70;100.00
51460;BME280;37534;39.772;2.718;2023-02-21T03:06:12;101996.16;;;6.58;100.00
51460;BME280;37534;39.772;2.718;2023-02-21T03:08:56;101982.25;;;6.39;100.00
51460;BME280;37534;39.772;2.718;2023-02-21T03:11:26;102000.19;;;6.39;100.00
51460;BME280;37534;39.772;2.718;2023-02-21T03:14:11;101999.38;;;6.42;100.00
51460;BME280;37534;39.772;2.718;2023-02-21T03:16:43;101992.50;;;6.38;100.00
51460;BME280;37534;39.772;2.718;2023-02-21T03:19:13;101972.78;;;6.32;100.00
51460;BME280;37534;39.772;2.718;2023-02-21T03:21:51;101973.66;;;6.33;100.00
51460;BME280;37534;39.772;2.718;2023-02-21T03:24:20;101964.28;;;6.35;100.00
51460;BME280;37534;39.772;2.718;2023-02-21T03:26:52;101965.09;;;6.34;100.00
51460;BME280;37534;39.772;2.718;2023-02-21T03:29:19;101961.66;;;6.32;100.00
51460;BME280;37534;39.772;2.718;2023-02-21T03:31:48;101949.75;;;6.37;100.00
51460;BME280;37534;39.772;2.718;2023-02-21T03:34:16;101945.59;;;6.45;100.00
51460;BME280;37534;39.772;2.718;2023-02-21T03:36:42;101952.41;;;6.44;100.00
51460;BME280;37534;39.772;2.718;2023-02-21T03:39:08;101963.63;;;6.54;100.00
51460;BME280;37534;39.772;2.718;2023-02-21T03:41:33;101947.25;;;6.43;100.00
51460;BME280;37534;39.772;2.718;2023-02-21T03:43:59;101948.88;;;6.33;100.00
51460;BME280;37534;39.772;2.718;2023-02-21T03:46:25;101937.63;;;6.23;100.00
51460;BME280;37534;39.772;2.718;2023-02-21T03:48:50;101937.88;;;6.42;100.00
51460;BME280;37534;39.772;2.718;2023-02-21T03:51:16;101955.84;;;6.45;100.00
51460;BME280;37534;39.772;2.718;2023-02-21T03:53:41;101950.63;;;6.37;100.00
51460;BME280;37534;39.772;2.718;2023-02-21T03:56:07;101947.97;;;6.30;100.00
51460;BME280;37534;39.772;2.718;2023-02-21T03:58:33;101947.88;;;6.20;100.00
51460;BME280;37534;39.772;2.718;2023-02-21T04:00:59;101958.03;;;6.14;100.00
51460;BME280;37534;39.772;2.718;2023-02-21T04:03:24;101954.53;;;6.07;100.00
51460;BME280;37534;39.772;2.718;2023-02-21T04:05:50;101952.13;;;6.18;100.00
51460;BME280;37534;39.772;2.718;2023-02-21T04:08:16;101953.94;;;6.28;100.00
51460;BME280;37534;39.772;2.718;2023-02-21T04:10:41;101946.25;;;6.28;100.00
51460;BME280;37534;39.772;2.718;2023-02-21T04:13:07;101943.47;;;6.10;100.00
51460;BME280;37534;39.772;2.718;2023-02-21T04:15:33;101948.50;;;6.04;100.00
51460;BME280;37534;39.772;2.718;2023-02-21T04:17:59;101948.38;;;5.95;100.00
51460;BME280;37534;39.772;2.718;2023-02-21T04:20:24;101938.13;;;5.95;100.00
51460;BME280;37534;39.772;2.718;2023-02-21T04:22:50;101934.84;;;6.03;100.00
51460;BME280;37534;39.772;2.718;2023-02-21T04:25:16;101931.25;;;5.92;100.00
51460;BME280;37534;39.772;2.718;2023-02-21T04:27:41;101940.81;;;6.04;100.00
51460;BME280;37534;39.772;2.718;2023-02-21T04:30:07;101936.47;;;5.97;100.00
51460;BME280;37534;39.772;2.718;2023-02-21T04:32:33;101936.56;;;6.04;100.00
51460;BME280;37534;39.772;2.718;2023-02-21T04:34:59;101935.75;;;6.07;100.00
51460;BME280;37534;39.772;2.718;2023-02-21T04:37:24;101930.41;;;5.92;100.00
51460;BME280;37534;39.772;2.718;2023-02-21T04:39:50;101931.41;;;6.01;100.00
51460;BME280;37534;39.772;2.718;2023-02-21T04:42:16;101930.41;;;5.92;100.00
51460;BME280;37534;39.772;2.718;2023-02-21T04:44:42;101928.56;;;5.81;100.00
51460;BME280;37534;39.772;2.718;2023-02-21T04:47:07;101927.72;;;5.82;100.00
51460;BME280;37534;39.772;2.718;2023-02-21T04:49:33;101912.31;;;5.81;100.00
51460;BME280;37534;39.772;2.718;2023-02-21T04:51:58;101922.59;;;5.82;100.00
51460;BME280;37534;39.772;2.718;2023-02-21T04:54:24;101919.97;;;5.76;100.00
51460;BME280;37534;39.772;2.718;2023-02-21T04:56:50;101925.03;;;5.73;100.00
51460;BME280;37534;39.772;2.718;2023-02-21T04:59:15;101926.94;;;5.89;100.00
51460;BME280;37534;39.772;2.718;2023-02-21T05:01:41;101915.78;;;5.83;100.00
51460;BME280;37534;39.772;2.718;2023-02-21T05:04:06;101916.63;;;5.83;100.00
51460;BME280;37534;39.772;2.718;2023-02-21T05:06:32;101904.56;;;5.75;100.00
51460;BME280;37534;39.772;2.718;2023-02-21T05:08:58;101910.50;;;5.70;100.00
51460;BME280;37534;39.772;2.718;2023-02-21T05:11:25;101902.81;;;5.70;100.00
51460;BME280;37534;39.772;2.718;2023-02-21T05:13:51;101912.31;;;5.79;100.00
51460;BME280;37534;39.772;2.718;2023-02-21T05:16:17;101908.69;;;5.65;100.00
51460;BME280;37534;39.772;2.718;2023-02-21T05:18:44;101907.75;;;5.57;100.00
51460;BME280;37534;39.772;2.718;2023-02-21T05:21:11;101902.53;;;5.50;100.00
51460;BME280;37534;39.772;2.718;2023-02-21T05:23:38;101897.41;;;5.50;100.00
51460;BME280;37534;39.772;2.718;2023-02-21T05:26:07;101891.69;;;5.67;100.00
51460;BME280;37534;39.772;2.718;2023-02-21T05:28:34;101902.97;;;5.83;100.00
51460;BME280;37534;39.772;2.718;2023-02-21T05:30:59;101894.31;;;5.73;100.00
51460;BME280;37534;39.772;2.718;2023-02-21T05:33:25;101883.00;;;5.57;100.00
51460;BME280;37534;39.772;2.718;2023-02-21T05:35:51;101895.00;;;5.63;100.00
51460;BME280;37534;39.772;2.718;2023-02-21T05:38:19;101889.81;;;5.57;100.00
51460;BME280;37534;39.772;2.718;2023-02-21T05:40:45;101888.06;;;5.52;100.00
51460;BME280;37534;39.772;2.718;2023-02-21T05:43:11;101887.34;;;5.63;100.00
51460;BME280;37534;39.772;2.718;2023-02-21T05:45:36;101889.13;;;5.70;100.00
51460;BME280;37534;39.772;2.718;2023-02-21T05:48:02;101885.75;;;5.71;100.00
51460;BME280;37534;39.772;2.718;2023-02-21T05:50:28;101883.97;;;5.65;100.00
51460;BME280;37534;39.772;2.718;2023-02-21T05:52:55;101881.28;;;5.58;100.00
51460;BME280;37534;39.772;2.718;2023-02-21T05:55:21;101873.59;;;5.58;100.00
51460;BME280;37534;39.772;2.718;2023-02-21T05:57:47;101877.09;;;5.63;100.00
51460;BME280;37534;39.772;2.718;2023-02-21T06:00:26;101870.47;;;5.79;100.00
51460;BME280;37534;39.772;2.718;2023-02-21T06:02:53;101865.31;;;5.74;100.00
51460;BME280;37534;39.772;2.718;2023-02-21T06:05:20;101865.31;;;5.74;100.00
51460;BME280;37534;39.772;2.718;2023-02-21T06:07:47;101856.66;;;5.66;100.00
51460;BME280;37534;39.772;2.718;2023-02-21T06:10:14;101864.44;;;5.72;100.00
51460;BME280;37534;39.772;2.718;2023-02-21T06:12:40;101873.06;;;5.80;100.00
51460;BME280;37534;39.772;2.718;2023-02-21T06:15:06;101876.59;;;5.90;100.00
51460;BME280;37534;39.772;2.718;2023-02-21T06:17:32;101872.47;;;6.01;100.00
51460;BME280;37534;39.772;2.718;2023-02-21T06:19:58;101874.25;;;6.07;100.00
51460;BME280;37534;39.772;2.718;2023-02-21T06:22:24;101879.41;;;6.10;100.00
51460;BME280;37534;39.772;2.718;2023-02-21T06:24:50;101884.50;;;6.07;100.00
51460;BME280;37534;39.772;2.718;2023-02-21T06:27:15;101874.22;;;6.04;100.00
51460;BME280;37534;39.772;2.718;2023-02-21T06:29:41;101879.41;;;6.10;100.00
51460;BME280;37534;39.772;2.718;2023-02-21T06:32:06;101870.00;;;6.09;100.00
51460;BME280;37534;39.772;2.718;2023-02-21T06:34:32;101869.22;;;6.16;100.00
51460;BME280;37534;39.772;2.718;2023-02-21T06:36:58;101862.47;;;6.24;100.00
51460;BME280;37534;39.772;2.718;2023-02-21T06:39:24;101864.22;;;6.25;100.00
51460;BME280;37534;39.772;2.718;2023-02-21T06:41:50;101865.88;;;6.23;100.00
51460;BME280;37534;39.772;2.718;2023-02-21T06:44:16;101871.88;;;6.27;100.00
51460;BME280;37534;39.772;2.718;2023-02-21T06:46:42;101877.13;;;6.36;100.00
51460;BME280;37534;39.772;2.718;2023-02-21T06:49:08;101871.22;;;6.46;100.00
51460;BME280;37534;39.772;2.718;2023-02-21T06:51:38;101876.50;;;6.60;100.00
51460;BME280;37534;39.772;2.718;2023-02-21T06:54:05;101869.66;;;6.59;100.00
51460;BME280;37534;39.772;2.718;2023-02-21T06:56:32;101883.44;;;6.71;100.00
51460;BME280;37534;39.772;2.718;2023-02-21T06:58:58;101886.16;;;6.88;100.00
51460;BME280;37534;39.772;2.718;2023-02-21T07:01:25;101865.59;;;6.84;100.00
51460;BME280;37534;39.772;2.718;2023-02-21T07:03:53;101873.38;;;6.95;100.00
51460;BME280;37534;39.772;2.718;2023-02-21T07:06:19;101870.75;;;6.88;100.00
51460;BME280;37534;39.772;2.718;2023-02-21T07:08:45;101880.16;;;6.87;100.00
51460;BME280;37534;39.772;2.718;2023-02-21T07:11:11;101866.44;;;6.80;100.00
51460;BME280;37534;39.772;2.718;2023-02-21T07:13:36;101881.91;;;6.94;100.00
51460;BME280;37534;39.772;2.718;2023-02-21T07:16:03;101876.03;;;7.06;100.00
51460;BME280;37534;39.772;2.718;2023-02-21T07:18:28;101888.09;;;7.22;100.00
51460;BME280;37534;39.772;2.718;2023-02-21T07:20:54;101882.16;;;7.30;100.00
51460;BME280;37534;39.772;2.718;2023-02-21T07:23:19;101888.22;;;7.42;100.00
51460;BME280;37534;39.772;2.718;2023-02-21T07:25:45;101874.59;;;7.50;100.00
51460;BME280;37534;39.772;2.718;2023-02-21T07:28:11;101882.38;;;7.68;100.00
51460;BME280;37534;39.772;2.718;2023-02-21T07:30:36;101880.75;;;7.92;100.00
51460;BME280;37534;39.772;2.718;2023-02-21T07:33:02;101875.69;;;8.13;100.00
51460;BME280;37534;39.772;2.718;2023-02-21T07:35:27;101889.47;;;8.34;100.00
51460;BME280;37534;39.772;2.718;2023-02-21T07:37:53;101884.34;;;8.37;100.00
51460;BME280;37534;39.772;2.718;2023-02-21T07:40:19;101891.25;;;8.55;100.00
51460;BME280;37534;39.772;2.718;2023-02-21T07:42:45;101880.09;;;8.61;100.00
51460;BME280;37534;39.772;2.718;2023-02-21T07:45:13;101877.53;;;8.70;100.00
51460;BME280;37534;39.772;2.718;2023-02-21T07:47:39;101884.41;;;8.80;100.00
51460;BME280;37534;39.772;2.718;2023-02-21T07:50:05;101870.66;;;8.84;100.00
51460;BME280;37534;39.772;2.718;2023-02-21T07:52:31;101866.38;;;9.02;100.00
51460;BME280;37534;39.772;2.718;2023-02-21T07:54:56;101863.78;;;9.17;100.00
51460;BME280;37534;39.772;2.718;2023-02-21T07:57:22;101881.78;;;9.39;100.00
51460;BME280;37534;39.772;2.718;2023-02-21T07:59:48;101882.63;;;9.47;100.00
51460;BME280;37534;39.772;2.718;2023-02-21T08:02:14;101901.44;;;9.67;100.00
51460;BME280;37534;39.772;2.718;2023-02-21T08:04:39;101887.66;;;9.76;100.00
51460;BME280;37534;39.772;2.718;2023-02-21T08:07:06;101879.03;;;9.82;100.00
51460;BME280;37534;39.772;2.718;2023-02-21T08:09:32;101887.56;;;10.02;100.00
51460;BME280;37534;39.772;2.718;2023-02-21T08:11:57;101901.25;;;10.11;100.00
51460;BME280;37534;39.772;2.718;2023-02-21T08:14:23;101895.25;;;10.10;100.00
51460;BME280;37534;39.772;2.718;2023-02-21T08:16:49;101900.41;;;10.16;100.00
51460;BME280;37534;39.772;2.718;2023-02-21T08:19:15;101890.09;;;10.13;100.00
51460;BME280;37534;39.772;2.718;2023-02-21T08:21:47;101892.63;;;10.19;100.00
51460;BME280;37534;39.772;2.718;2023-02-21T08:24:14;101899.47;;;10.34;100.00
51460;BME280;37534;39.772;2.718;2023-02-21T08:26:40;101887.41;;;10.38;100.00
51460;BME280;37534;39.772;2.718;2023-02-21T08:29:09;101899.31;;;10.56;100.00
51460;BME280;37534;39.772;2.718;2023-02-21T08:31:37;101896.59;;;10.71;100.00
51460;BME280;37534;39.772;2.718;2023-02-21T08:34:03;101899.16;;;10.77;100.00
51460;BME280;37534;39.772;2.718;2023-02-21T08:36:33;101878.41;;;10.87;100.00
51460;BME280;37534;39.772;2.718;2023-02-21T08:38:59;101885.25;;;10.94;100.00
51460;BME280;37534;39.772;2.718;2023-02-21T08:41:37;101888.41;;;11.23;100.00
51460;BME280;37534;39.772;2.718;2023-02-21T08:44:05;101877.88;;;11.42;100.00
51460;BME280;37534;39.772;2.718;2023-02-21T08:46:30;101888.00;;;11.64;100.00
51460;BME280;37534;39.772;2.718;2023-02-21T08:48:56;101882.56;;;11.85;100.00
51460;BME280;37534;39.772;2.718;2023-02-21T08:51:26;101886.91;;;12.47;100.00
51460;BME280;37534;39.772;2.718;2023-02-21T08:53:52;101884.91;;;13.17;100.00
51460;BME280;37534;39.772;2.718;2023-02-21T08:56:22;101879.09;;;13.95;98.96
51460;BME280;37534;39.772;2.718;2023-02-21T08:58:48;101879.06;;;14.73;93.48
51460;BME280;37534;39.772;2.718;2023-02-21T09:01:15;101877.53;;;15.31;89.71
51460;BME280;37534;39.772;2.718;2023-02-21T09:03:41;101865.22;;;15.69;84.96
51460;BME280;37534;39.772;2.718;2023-02-21T09:06:07;101862.69;;;15.98;76.67
51460;BME280;37534;39.772;2.718;2023-02-21T09:08:33;101854.25;;;16.71;71.79
51460;BME280;37534;39.772;2.718;2023-02-21T09:11:02;101862.72;;;17.04;68.96
51460;BME280;37534;39.772;2.718;2023-02-21T09:13:29;101858.22;;;17.09;68.18
51460;BME280;37534;39.772;2.718;2023-02-21T09:15:55;101864.72;;;17.70;68.14
51460;BME280;37534;39.772;2.718;2023-02-21T09:18:22;101865.81;;;18.10;65.27
51460;BME280;37534;39.772;2.718;2023-02-21T09:20:47;101853.22;;;18.42;65.56
51460;BME280;37534;39.772;2.718;2023-02-21T09:23:19;101860.72;;;18.72;63.58
51460;BME280;37534;39.772;2.718;2023-02-21T09:25:46;101855.31;;;18.76;63.17
51460;BME280;37534;39.772;2.718;2023-02-21T09:28:12;101847.66;;;19.52;61.57
51460;BME280;37534;39.772;2.718;2023-02-21T09:30:38;101858.91;;;21.00;57.78
51460;BME280;37534;39.772;2.718;2023-02-21T09:33:03;101858.56;;;22.51;50.53
51460;BME280;37534;39.772;2.718;2023-02-21T09:35:29;101844.19;;;24.01;44.24
51460;BME280;37534;39.772;2.718;2023-02-21T09:37:56;101840.38;;;25.11;37.71
51460;BME280;37534;39.772;2.718;2023-02-21T09:40:44;101853.69;;;25.72;34.75
51460;BME280;37534;39.772;2.718;2023-02-21T09:43:18;101848.63;;;24.80;35.85
51460;BME280;37534;39.772;2.718;2023-02-21T09:45:46;101845.03;;;25.33;36.26
51460;BME280;37534;39.772;2.718;2023-02-21T09:48:17;101847.56;;;25.71;35.11
51460;BME280;37534;39.772;2.718;2023-02-21T09:50:52;101842.94;;;26.34;35.23
51460;BME280;37534;39.772;2.718;2023-02-21T09:53:21;101820.31;;;27.56;32.98
51460;BME280;37534;39.772;2.718;2023-02-21T09:55:49;101826.81;;;28.91;31.60
51460;BME280;37534;39.772;2.718;2023-02-21T09:58:19;101826.91;;;29.51;29.45
51460;BME280;37534;39.772;2.718;2023-02-21T10:00:44;101818.66;;;29.14;27.92
51460;BME280;37534;39.772;2.718;2023-02-21T10:03:50;101816.16;;;29.72;28.29
51460;BME280;37534;39.772;2.718;2023-02-21T10:08:58;101808.03;;;29.64;26.76
51460;BME280;37534;39.772;2.718;2023-02-21T10:11:43;101808.91;;;29.24;26.51
51460;BME280;37534;39.772;2.718;2023-02-21T10:14:18;101801.47;;;30.17;25.88
51460;BME280;37534;39.772;2.718;2023-02-21T10:16:58;101804.09;;;30.94;25.04
51460;BME280;37534;39.772;2.718;2023-02-21T10:19:36;101800.66;;;31.11;23.85
51460;BME280;37534;39.772;2.718;2023-02-21T10:22:20;101797.25;;;30.24;25.24
51460;BME280;37534;39.772;2.718;2023-02-21T10:24:47;101791.00;;;31.56;23.55
51460;BME280;37534;39.772;2.718;2023-02-21T10:27:17;101789.75;;;32.48;22.95
51460;BME280;37534;39.772;2.718;2023-02-21T10:29:59;101792.31;;;32.92;21.34
51460;BME280;37534;39.772;2.718;2023-02-21T10:32:26;101780.09;;;31.21;22.04
51460;BME280;37534;39.772;2.718;2023-02-21T10:34:52;101781.66;;;30.96;23.11
51460;BME280;37534;39.772;2.718;2023-02-21T10:40:04;101778.59;;;29.36;25.43
51460;BME280;37534;39.772;2.718;2023-02-21T10:43:11;101777.78;;;30.24;24.44
51460;BME280;37534;39.772;2.718;2023-02-21T10:48:11;101760.84;;;30.35;23.84
51460;BME280;37534;39.772;2.718;2023-02-21T10:50:41;101767.03;;;30.63;23.06
51460;BME280;37534;39.772;2.718;2023-02-21T10:53:08;101768.13;;;29.74;23.84
51460;BME280;37534;39.772;2.718;2023-02-21T10:58:31;101748.03;;;27.86;24.74
51460;BME280;37534;39.772;2.718;2023-02-21T11:01:11;101747.34;;;27.73;25.23
51460;BME280;37534;39.772;2.718;2023-02-21T11:03:43;101755.00;;;27.11;25.50
51460;BME280;37534;39.772;2.718;2023-02-21T11:06:21;101761.59;;;26.94;26.09
51460;BME280;37534;39.772;2.718;2023-02-21T11:08:48;101753.41;;;26.06;27.06
51460;BME280;37534;39.772;2.718;2023-02-21T11:11:13;101761.28;;;25.70;27.31
51460;BME280;37534;39.772;2.718;2023-02-21T11:13:39;101746.56;;;25.79;27.20
51460;BME280;37534;39.772;2.718;2023-02-21T11:16:18;101745.88;;;26.24;28.04
51460;BME280;37534;39.772;2.718;2023-02-21T11:18:44;101734.66;;;26.78;27.40
51460;BME280;37534;39.772;2.718;2023-02-21T11:21:15;101732.69;;;27.25;25.95
51460;BME280;37534;39.772;2.718;2023-02-21T11:24:00;101735.47;;;28.73;25.81
51460;BME280;37534;39.772;2.718;2023-02-21T11:26:37;101732.44;;;29.86;24.56
51460;BME280;37534;39.772;2.718;2023-02-21T11:29:14;101721.97;;;31.25;23.20
51460;BME280;37534;39.772;2.718;2023-02-21T11:31:44;101716.00;;;31.77;23.22
51460;BME280;37534;39.772;2.718;2023-02-21T11:34:12;101682.75;;;32.50;22.17
51460;BME280;37534;39.772;2.718;2023-02-21T11:36:41;101718.09;;;33.37;21.74
51460;BME280;37534;39.772;2.718;2023-02-21T11:39:25;101709.94;;;32.45;21.22
51460;BME280;37534;39.772;2.718;2023-02-21T11:42:00;101703.22;;;30.71;22.60
51460;BME280;37534;39.772;2.718;2023-02-21T11:44:39;101711.59;;;29.52;23.54
51460;BME280;37534;39.772;2.718;2023-02-21T11:47:15;101702.34;;;28.77;23.94
51460;BME280;37534;39.772;2.718;2023-02-21T11:52:22;101661.09;;;27.69;26.46
51460;BME280;37534;39.772;2.718;2023-02-21T11:54:49;101682.16;;;27.49;26.48
51460;BME280;37534;39.772;2.718;2023-02-21T11:57:29;101685.97;;;28.10;26.17
51460;BME280;37534;39.772;2.718;2023-02-21T12:22:50;101680.91;;;24.63;33.59
51460;BME280;37534;39.772;2.718;2023-02-21T12:31:08;101662.72;;;28.54;30.12
51460;BME280;37534;39.772;2.718;2023-02-21T12:33:53;101676.19;;;29.62;28.48
51460;BME280;37534;39.772;2.718;2023-02-21T12:37:36;101671.84;;;29.41;27.77
51460;BME280;37534;39.772;2.718;2023-02-21T12:42:45;101687.69;;;28.82;27.25
51460;BME280;37534;39.772;2.718;2023-02-21T12:45:27;101698.09;;;27.71;29.10
51460;BME280;37534;39.772;2.718;2023-02-21T12:48:08;101705.25;;;25.89;32.29
51460;BME280;37534;39.772;2.718;2023-02-21T12:50:39;101714.78;;;24.70;33.14
51460;BME280;37534;39.772;2.718;2023-02-21T12:53:19;101728.41;;;23.85;35.65
51460;BME280;37534;39.772;2.718;2023-02-21T12:55:54;101710.16;;;22.98;36.10
51460;BME280;37534;39.772;2.718;2023-02-21T12:58:38;101706.50;;;22.13;36.75
51460;BME280;37534;39.772;2.718;2023-02-21T13:01:17;101707.44;;;22.28;36.34
51460;BME280;37534;39.772;2.718;2023-02-21T13:12:10;101678.22;;;24.76;32.04
51460;BME280;37534;39.772;2.718;2023-02-21T13:14:47;101682.38;;;25.04;33.11
51460;BME280;37534;39.772;2.718;2023-02-21T13:17:14;101654.16;;;26.24;31.99
51460;BME280;37534;39.772;2.718;2023-02-21T13:27:52;101647.56;;;31.94;24.82
51460;BME280;37534;39.772;2.718;2023-02-21T13:30:38;101641.59;;;32.69;24.16
51460;BME280;37534;39.772;2.718;2023-02-21T13:33:04;101644.72;;;33.23;23.70
51460;BME280;37534;39.772;2.718;2023-02-21T13:35:33;101646.56;;;33.47;23.19
51460;BME280;37534;39.772;2.718;2023-02-21T13:38:01;101645.66;;;33.96;22.61
51460;BME280;37534;39.772;2.718;2023-02-21T13:40:50;101652.31;;;32.93;24.00
51460;BME280;37534;39.772;2.718;2023-02-21T13:43:30;101643.97;;;33.95;23.14
51460;BME280;37534;39.772;2.718;2023-02-21T13:55:15;101625.69;;;34.07;20.97
51460;BME280;37534;39.772;2.718;2023-02-21T13:57:38;101626.66;;;34.14;20.50
51460;BME280;37534;39.772;2.718;2023-02-21T14:08:43;101619.44;;;33.75;20.30
51460;BME280;37534;39.772;2.718;2023-02-21T14:11:17;101605.59;;;34.11;19.32
51460;BME280;37534;39.772;2.718;2023-02-21T14:13:48;101602.91;;;34.27;18.44
51460;BME280;37534;39.772;2.718;2023-02-21T14:19:00;101600.59;;;34.08;19.00
51460;BME280;37534;39.772;2.718;2023-02-21T14:21:32;101597.97;;;33.91;19.13
51460;BME280;37534;39.772;2.718;2023-02-21T14:24:01;101590.88;;;33.67;19.59
51460;BME280;37534;39.772;2.718;2023-02-21T14:26:44;101584.81;;;33.74;18.55
51460;BME280;37534;39.772;2.718;2023-02-21T14:29:29;101581.41;;;33.88;18.63
51460;BME280;37534;39.772;2.718;2023-02-21T14:37:43;101570.13;;;33.69;19.07
51460;BME280;37534;39.772;2.718;2023-02-21T14:48:45;101579.53;;;32.32;21.45
51460;BME280;37534;39.772;2.718;2023-02-21T14:59:59;101585.84;;;31.00;23.90
51460;BME280;37534;39.772;2.718;2023-02-21T15:02:29;101580.28;;;30.48;24.79
51460;BME280;37534;39.772;2.718;2023-02-21T15:05:22;101578.97;;;30.34;24.86
51460;BME280;37534;39.772;2.718;2023-02-21T15:08:11;101570.47;;;30.21;24.29
51460;BME280;37534;39.772;2.718;2023-02-21T15:10:41;101553.56;;;30.12;24.31
51460;BME280;37534;39.772;2.718;2023-02-21T15:15:55;101529.09;;;29.61;23.02
51460;BME280;37534;39.772;2.718;2023-02-21T15:18:30;101525.97;;;28.19;23.75
51460;BME280;37534;39.772;2.718;2023-02-21T15:23:41;101517.44;;;28.16;23.77
51460;BME280;37534;39.772;2.718;2023-02-21T15:29:02;101506.94;;;27.95;23.49
51460;BME280;37534;39.772;2.718;2023-02-21T15:31:35;101496.38;;;27.53;23.89